DUN weather

CLOSED Dundas Airport
Pituffik, Greenland

Public forecast

Using degrees Celsius for public forecast. Weather courtesy of forecast.io.

Closest aviation weather report (METAR) to Dundas Airport

Closest report is Thule Air Base, 1.4 nm (2.6 km) ENE. Retrieved 2019/10/20 21:56 UTC (34 minutes ago):

BGTL 202156Z AUTO 10016KT 9999 CLR M13/M16 A3022 RMK AO2 SLP224 T11261160 TSNO

Closest aviation forecast (TAF) to Dundas Airport

Forecast is more than 12 hours old.

Closest forecast is Thule Air Base, 1.4 nm (2.6 km) ENE. Retrieved 2019/10/18 17:09 UTC (2 days ago):

TAF BGTL 181700Z 1817/1923 29009KT 9999 SCT025 QNH2989INS BECMG 1900/1901 VRB06KT 9999 SKC QNH2992INS TXM07/1818Z TNM25/1909Z LAST NO AMDS AFT 1819 NEXT 2109